sensor_id;sensor_type;location;lat;lon;timestamp;P1;durP1;ratioP1;P2;durP2;ratioP2
4601;SDS011;2313;48.552;9.370;2023-04-23T00:00:03;5.40;;;2.67;;
4601;SDS011;2313;48.552;9.370;2023-04-23T00:02:31;4.43;;;2.13;;
4601;SDS011;2313;48.552;9.370;2023-04-23T00:05:01;5.00;;;2.40;;
4601;SDS011;2313;48.552;9.370;2023-04-23T00:07:30;6.27;;;2.10;;
4601;SDS011;2313;48.552;9.370;2023-04-23T00:10:00;5.23;;;2.17;;
4601;SDS011;2313;48.552;9.370;2023-04-23T00:12:29;3.70;;;2.00;;
4601;SDS011;2313;48.552;9.370;2023-04-23T00:14:55;3.63;;;2.23;;
4601;SDS011;2313;48.552;9.370;2023-04-23T00:17:21;10.80;;;1.93;;
4601;SDS011;2313;48.552;9.370;2023-04-23T00:19:47;7.03;;;2.70;;
4601;SDS011;2313;48.552;9.370;2023-04-23T00:22:13;5.33;;;2.00;;
4601;SDS011;2313;48.552;9.370;2023-04-23T00:24:43;4.73;;;2.70;;
4601;SDS011;2313;48.552;9.370;2023-04-23T00:27:09;4.07;;;2.17;;
4601;SDS011;2313;48.552;9.370;2023-04-23T00:29:34;5.27;;;2.20;;
4601;SDS011;2313;48.552;9.370;2023-04-23T00:32:00;7.57;;;2.50;;
4601;SDS011;2313;48.552;9.370;2023-04-23T00:34:27;3.10;;;2.07;;
4601;SDS011;2313;48.552;9.370;2023-04-23T00:36:53;7.70;;;1.93;;
4601;SDS011;2313;48.552;9.370;2023-04-23T00:39:18;6.13;;;2.73;;
4601;SDS011;2313;48.552;9.370;2023-04-23T00:41:44;6.53;;;2.23;;
4601;SDS011;2313;48.552;9.370;2023-04-23T00:44:10;7.20;;;1.93;;
4601;SDS011;2313;48.552;9.370;2023-04-23T00:46:37;2.60;;;1.90;;
4601;SDS011;2313;48.552;9.370;2023-04-23T00:49:03;4.70;;;2.27;;
4601;SDS011;2313;48.552;9.370;2023-04-23T00:51:28;11.40;;;2.80;;
4601;SDS011;2313;48.552;9.370;2023-04-23T00:53:56;5.40;;;2.60;;
4601;SDS011;2313;48.552;9.370;2023-04-23T00:56:22;8.17;;;1.63;;
4601;SDS011;2313;48.552;9.370;2023-04-23T00:58:49;7.60;;;2.20;;
4601;SDS011;2313;48.552;9.370;2023-04-23T01:01:15;3.73;;;2.60;;
4601;SDS011;2313;48.552;9.370;2023-04-23T01:03:44;3.80;;;2.20;;
4601;SDS011;2313;48.552;9.370;2023-04-23T01:06:12;2.90;;;2.00;;
4601;SDS011;2313;48.552;9.370;2023-04-23T01:08:38;7.73;;;2.33;;
4601;SDS011;2313;48.552;9.370;2023-04-23T01:11:07;2.20;;;1.57;;
4601;SDS011;2313;48.552;9.370;2023-04-23T01:13:33;2.33;;;2.10;;
4601;SDS011;2313;48.552;9.370;2023-04-23T01:15:59;9.30;;;1.90;;
4601;SDS011;2313;48.552;9.370;2023-04-23T01:18:26;4.23;;;2.20;;
4601;SDS011;2313;48.552;9.370;2023-04-23T01:20:53;4.60;;;1.73;;
4601;SDS011;2313;48.552;9.370;2023-04-23T01:23:19;4.73;;;1.53;;
4601;SDS011;2313;48.552;9.370;2023-04-23T01:25:45;4.50;;;2.00;;
4601;SDS011;2313;48.552;9.370;2023-04-23T01:28:11;3.20;;;2.00;;
4601;SDS011;2313;48.552;9.370;2023-04-23T01:30:37;3.90;;;1.73;;
4601;SDS011;2313;48.552;9.370;2023-04-23T01:33:04;3.53;;;2.40;;
4601;SDS011;2313;48.552;9.370;2023-04-23T01:35:30;4.03;;;1.83;;
4601;SDS011;2313;48.552;9.370;2023-04-23T01:37:56;5.53;;;2.10;;
4601;SDS011;2313;48.552;9.370;2023-04-23T01:40:23;7.10;;;2.27;;
4601;SDS011;2313;48.552;9.370;2023-04-23T01:42:49;3.90;;;2.40;;
4601;SDS011;2313;48.552;9.370;2023-04-23T01:45:15;2.63;;;2.33;;
4601;SDS011;2313;48.552;9.370;2023-04-23T01:47:43;3.43;;;2.23;;
4601;SDS011;2313;48.552;9.370;2023-04-23T01:50:11;5.43;;;1.90;;
4601;SDS011;2313;48.552;9.370;2023-04-23T01:52:36;3.10;;;1.90;;
4601;SDS011;2313;48.552;9.370;2023-04-23T01:55:02;4.33;;;2.00;;
4601;SDS011;2313;48.552;9.370;2023-04-23T01:57:28;2.73;;;1.50;;
4601;SDS011;2313;48.552;9.370;2023-04-23T02:00:00;5.60;;;2.30;;
4601;SDS011;2313;48.552;9.370;2023-04-23T02:02:35;2.60;;;1.57;;
4601;SDS011;2313;48.552;9.370;2023-04-23T02:05:01;2.53;;;1.90;;
4601;SDS011;2313;48.552;9.370;2023-04-23T02:07:29;2.63;;;1.40;;
4601;SDS011;2313;48.552;9.370;2023-04-23T02:09:56;3.30;;;1.50;;
4601;SDS011;2313;48.552;9.370;2023-04-23T02:12:22;6.00;;;2.37;;
4601;SDS011;2313;48.552;9.370;2023-04-23T02:14:47;3.40;;;1.93;;
4601;SDS011;2313;48.552;9.370;2023-04-23T02:17:13;6.17;;;2.33;;
4601;SDS011;2313;48.552;9.370;2023-04-23T02:19:39;2.57;;;1.40;;
4601;SDS011;2313;48.552;9.370;2023-04-23T02:22:04;7.03;;;1.53;;
4601;SDS011;2313;48.552;9.370;2023-04-23T02:24:33;1.83;;;1.43;;
4601;SDS011;2313;48.552;9.370;2023-04-23T02:26:58;3.30;;;2.00;;
4601;SDS011;2313;48.552;9.370;2023-04-23T02:29:24;4.73;;;1.93;;
4601;SDS011;2313;48.552;9.370;2023-04-23T02:31:50;4.40;;;1.70;;
4601;SDS011;2313;48.552;9.370;2023-04-23T02:34:15;3.77;;;1.73;;
4601;SDS011;2313;48.552;9.370;2023-04-23T02:36:41;2.80;;;1.70;;
4601;SDS011;2313;48.552;9.370;2023-04-23T02:39:06;3.00;;;2.10;;
4601;SDS011;2313;48.552;9.370;2023-04-23T02:41:32;3.60;;;1.77;;
4601;SDS011;2313;48.552;9.370;2023-04-23T02:43:57;3.80;;;2.07;;
4601;SDS011;2313;48.552;9.370;2023-04-23T02:46:23;4.27;;;1.80;;
4601;SDS011;2313;48.552;9.370;2023-04-23T02:48:49;3.13;;;1.90;;
4601;SDS011;2313;48.552;9.370;2023-04-23T02:51:14;4.00;;;1.87;;
4601;SDS011;2313;48.552;9.370;2023-04-23T02:53:40;2.70;;;2.43;;
4601;SDS011;2313;48.552;9.370;2023-04-23T02:56:06;2.20;;;1.67;;
4601;SDS011;2313;48.552;9.370;2023-04-23T02:58:31;3.17;;;2.40;;
4601;SDS011;2313;48.552;9.370;2023-04-23T03:00:57;6.63;;;2.13;;
4601;SDS011;2313;48.552;9.370;2023-04-23T03:03:24;2.80;;;2.20;;
4601;SDS011;2313;48.552;9.370;2023-04-23T03:05:51;6.20;;;2.97;;
4601;SDS011;2313;48.552;9.370;2023-04-23T03:08:17;6.23;;;2.07;;
4601;SDS011;2313;48.552;9.370;2023-04-23T03:10:43;2.77;;;2.40;;
4601;SDS011;2313;48.552;9.370;2023-04-23T03:13:08;4.30;;;1.70;;
4601;SDS011;2313;48.552;9.370;2023-04-23T03:15:34;3.57;;;1.80;;
4601;SDS011;2313;48.552;9.370;2023-04-23T03:18:00;5.83;;;2.50;;
4601;SDS011;2313;48.552;9.370;2023-04-23T03:20:26;2.50;;;1.80;;
4601;SDS011;2313;48.552;9.370;2023-04-23T03:22:52;4.47;;;2.40;;
4601;SDS011;2313;48.552;9.370;2023-04-23T03:25:17;1.70;;;1.60;;
4601;SDS011;2313;48.552;9.370;2023-04-23T03:27:44;6.40;;;2.83;;
4601;SDS011;2313;48.552;9.370;2023-04-23T03:30:10;2.30;;;1.80;;
4601;SDS011;2313;48.552;9.370;2023-04-23T03:32:36;3.30;;;1.93;;
4601;SDS011;2313;48.552;9.370;2023-04-23T03:35:03;3.97;;;2.30;;
4601;SDS011;2313;48.552;9.370;2023-04-23T03:37:28;1.70;;;1.50;;
4601;SDS011;2313;48.552;9.370;2023-04-23T03:39:54;6.00;;;1.53;;
4601;SDS011;2313;48.552;9.370;2023-04-23T03:42:20;2.73;;;1.63;;
4601;SDS011;2313;48.552;9.370;2023-04-23T03:44:45;2.90;;;2.40;;
4601;SDS011;2313;48.552;9.370;2023-04-23T03:47:11;2.30;;;1.70;;
4601;SDS011;2313;48.552;9.370;2023-04-23T03:49:37;2.07;;;1.87;;
4601;SDS011;2313;48.552;9.370;2023-04-23T03:52:02;4.17;;;2.13;;
4601;SDS011;2313;48.552;9.370;2023-04-23T03:54:28;6.13;;;2.00;;
4601;SDS011;2313;48.552;9.370;2023-04-23T03:56:54;2.83;;;2.07;;
4601;SDS011;2313;48.552;9.370;2023-04-23T03:59:21;2.73;;;2.10;;
4601;SDS011;2313;48.552;9.370;2023-04-23T04:01:47;4.13;;;1.90;;
4601;SDS011;2313;48.552;9.370;2023-04-23T04:04:13;3.20;;;2.00;;
4601;SDS011;2313;48.552;9.370;2023-04-23T04:06:39;4.27;;;2.27;;
4601;SDS011;2313;48.552;9.370;2023-04-23T04:09:05;2.53;;;2.20;;
4601;SDS011;2313;48.552;9.370;2023-04-23T04:11:32;4.10;;;2.40;;
4601;SDS011;2313;48.552;9.370;2023-04-23T04:13:57;4.90;;;2.07;;
4601;SDS011;2313;48.552;9.370;2023-04-23T04:16:23;2.13;;;1.93;;
4601;SDS011;2313;48.552;9.370;2023-04-23T04:18:49;2.30;;;2.10;;
4601;SDS011;2313;48.552;9.370;2023-04-23T04:21:14;3.00;;;2.13;;
4601;SDS011;2313;48.552;9.370;2023-04-23T04:23:41;3.57;;;2.03;;
4601;SDS011;2313;48.552;9.370;2023-04-23T04:26:07;2.80;;;1.60;;
4601;SDS011;2313;48.552;9.370;2023-04-23T04:28:33;2.70;;;1.57;;
4601;SDS011;2313;48.552;9.370;2023-04-23T04:31:01;5.57;;;2.00;;
4601;SDS011;2313;48.552;9.370;2023-04-23T04:33:27;2.13;;;1.90;;
4601;SDS011;2313;48.552;9.370;2023-04-23T04:35:53;2.10;;;1.90;;
4601;SDS011;2313;48.552;9.370;2023-04-23T04:38:20;7.40;;;1.60;;
4601;SDS011;2313;48.552;9.370;2023-04-23T04:40:46;2.30;;;2.03;;
4601;SDS011;2313;48.552;9.370;2023-04-23T04:43:13;1.60;;;1.50;;
4601;SDS011;2313;48.552;9.370;2023-04-23T04:45:40;4.63;;;1.33;;
4601;SDS011;2313;48.552;9.370;2023-04-23T04:48:06;1.87;;;1.70;;
4601;SDS011;2313;48.552;9.370;2023-04-23T04:50:32;3.43;;;1.53;;
4601;SDS011;2313;48.552;9.370;2023-04-23T04:52:58;1.67;;;1.50;;
4601;SDS011;2313;48.552;9.370;2023-04-23T04:55:23;1.17;;;0.80;;
4601;SDS011;2313;48.552;9.370;2023-04-23T04:57:49;1.40;;;1.00;;
4601;SDS011;2313;48.552;9.370;2023-04-23T05:00:22;1.17;;;0.93;;
4601;SDS011;2313;48.552;9.370;2023-04-23T05:02:51;4.17;;;2.17;;
4601;SDS011;2313;48.552;9.370;2023-04-23T05:05:18;1.10;;;0.90;;
4601;SDS011;2313;48.552;9.370;2023-04-23T05:07:44;1.53;;;1.10;;
4601;SDS011;2313;48.552;9.370;2023-04-23T05:10:10;1.07;;;0.97;;
4601;SDS011;2313;48.552;9.370;2023-04-23T05:12:36;1.10;;;1.00;;
4601;SDS011;2313;48.552;9.370;2023-04-23T05:15:05;1.93;;;1.10;;
4601;SDS011;2313;48.552;9.370;2023-04-23T05:17:32;10.27;;;6.77;;
4601;SDS011;2313;48.552;9.370;2023-04-23T05:19:58;1.63;;;1.00;;
4601;SDS011;2313;48.552;9.370;2023-04-23T05:22:23;3.13;;;1.57;;
4601;SDS011;2313;48.552;9.370;2023-04-23T05:24:50;0.80;;;0.77;;
4601;SDS011;2313;48.552;9.370;2023-04-23T05:27:15;1.73;;;1.30;;
4601;SDS011;2313;48.552;9.370;2023-04-23T05:29:41;2.27;;;1.00;;
4601;SDS011;2313;48.552;9.370;2023-04-23T05:32:06;2.60;;;1.33;;
4601;SDS011;2313;48.552;9.370;2023-04-23T05:34:32;1.30;;;1.00;;
4601;SDS011;2313;48.552;9.370;2023-04-23T05:36:58;1.93;;;0.90;;
4601;SDS011;2313;48.552;9.370;2023-04-23T05:39:23;1.33;;;1.07;;
4601;SDS011;2313;48.552;9.370;2023-04-23T05:41:49;1.10;;;0.80;;
4601;SDS011;2313;48.552;9.370;2023-04-23T05:44:14;2.30;;;1.07;;
4601;SDS011;2313;48.552;9.370;2023-04-23T05:46:40;1.53;;;0.80;;
4601;SDS011;2313;48.552;9.370;2023-04-23T05:49:05;3.37;;;0.70;;
4601;SDS011;2313;48.552;9.370;2023-04-23T05:51:31;0.90;;;0.60;;
4601;SDS011;2313;48.552;9.370;2023-04-23T05:53:56;0.80;;;0.60;;
4601;SDS011;2313;48.552;9.370;2023-04-23T05:56:22;1.00;;;0.67;;
4601;SDS011;2313;48.552;9.370;2023-04-23T05:58:48;2.03;;;0.63;;
4601;SDS011;2313;48.552;9.370;2023-04-23T06:01:13;0.80;;;0.60;;
4601;SDS011;2313;48.552;9.370;2023-04-23T06:03:39;1.53;;;0.80;;
4601;SDS011;2313;48.552;9.370;2023-04-23T06:06:09;1.40;;;0.60;;
4601;SDS011;2313;48.552;9.370;2023-04-23T06:08:36;0.90;;;0.67;;
4601;SDS011;2313;48.552;9.370;2023-04-23T06:11:01;1.43;;;0.70;;
4601;SDS011;2313;48.552;9.370;2023-04-23T06:13:27;1.03;;;0.70;;
4601;SDS011;2313;48.552;9.370;2023-04-23T06:15:54;1.57;;;0.50;;
4601;SDS011;2313;48.552;9.370;2023-04-23T06:18:20;0.80;;;0.60;;
4601;SDS011;2313;48.552;9.370;2023-04-23T06:20:46;0.70;;;0.50;;
4601;SDS011;2313;48.552;9.370;2023-04-23T06:23:12;1.20;;;0.60;;
4601;SDS011;2313;48.552;9.370;2023-04-23T06:25:38;1.33;;;0.67;;
4601;SDS011;2313;48.552;9.370;2023-04-23T06:28:04;1.10;;;0.80;;
4601;SDS011;2313;48.552;9.370;2023-04-23T06:30:30;0.90;;;0.50;;
4601;SDS011;2313;48.552;9.370;2023-04-23T06:32:56;0.90;;;0.80;;
4601;SDS011;2313;48.552;9.370;2023-04-23T06:35:21;0.80;;;0.50;;
4601;SDS011;2313;48.552;9.370;2023-04-23T06:37:47;0.80;;;0.50;;
4601;SDS011;2313;48.552;9.370;2023-04-23T06:40:13;1.30;;;0.77;;
4601;SDS011;2313;48.552;9.370;2023-04-23T06:42:39;1.30;;;0.70;;
4601;SDS011;2313;48.552;9.370;2023-04-23T06:45:05;0.90;;;0.77;;
4601;SDS011;2313;48.552;9.370;2023-04-23T06:47:31;0.80;;;0.50;;
4601;SDS011;2313;48.552;9.370;2023-04-23T06:49:57;0.90;;;0.70;;
4601;SDS011;2313;48.552;9.370;2023-04-23T06:52:24;1.40;;;0.60;;
4601;SDS011;2313;48.552;9.370;2023-04-23T06:54:50;0.80;;;0.60;;
4601;SDS011;2313;48.552;9.370;2023-04-23T06:57:15;1.00;;;0.70;;
4601;SDS011;2313;48.552;9.370;2023-04-23T06:59:41;0.90;;;0.60;;
4601;SDS011;2313;48.552;9.370;2023-04-23T07:02:07;1.27;;;0.60;;
4601;SDS011;2313;48.552;9.370;2023-04-23T07:04:32;0.90;;;0.50;;
4601;SDS011;2313;48.552;9.370;2023-04-23T07:06:58;2.20;;;0.60;;
4601;SDS011;2313;48.552;9.370;2023-04-23T07:09:25;0.80;;;0.57;;
4601;SDS011;2313;48.552;9.370;2023-04-23T07:11:51;1.20;;;0.60;;
4601;SDS011;2313;48.552;9.370;2023-04-23T07:14:17;0.90;;;0.60;;
4601;SDS011;2313;48.552;9.370;2023-04-23T07:16:42;1.90;;;0.70;;
4601;SDS011;2313;48.552;9.370;2023-04-23T07:19:08;1.83;;;0.70;;
4601;SDS011;2313;48.552;9.370;2023-04-23T07:21:33;1.43;;;0.60;;
4601;SDS011;2313;48.552;9.370;2023-04-23T07:23:59;2.70;;;0.60;;
4601;SDS011;2313;48.552;9.370;2023-04-23T07:26:30;0.80;;;0.53;;
4601;SDS011;2313;48.552;9.370;2023-04-23T07:28:57;1.00;;;0.60;;
4601;SDS011;2313;48.552;9.370;2023-04-23T07:31:22;0.90;;;0.57;;
4601;SDS011;2313;48.552;9.370;2023-04-23T07:33:48;2.03;;;1.07;;
4601;SDS011;2313;48.552;9.370;2023-04-23T07:36:14;0.90;;;0.60;;
4601;SDS011;2313;48.552;9.370;2023-04-23T07:38:39;1.13;;;0.60;;
4601;SDS011;2313;48.552;9.370;2023-04-23T07:41:05;1.77;;;0.60;;
4601;SDS011;2313;48.552;9.370;2023-04-23T07:43:31;0.90;;;0.50;;
4601;SDS011;2313;48.552;9.370;2023-04-23T07:45:57;0.80;;;0.60;;
4601;SDS011;2313;48.552;9.370;2023-04-23T07:48:22;1.00;;;0.60;;
4601;SDS011;2313;48.552;9.370;2023-04-23T07:50:48;0.90;;;0.60;;
4601;SDS011;2313;48.552;9.370;2023-04-23T07:53:13;2.83;;;0.80;;
4601;SDS011;2313;48.552;9.370;2023-04-23T07:55:39;1.50;;;0.60;;
4601;SDS011;2313;48.552;9.370;2023-04-23T07:58:05;2.27;;;0.70;;
4601;SDS011;2313;48.552;9.370;2023-04-23T08:00:30;0.80;;;0.67;;
4601;SDS011;2313;48.552;9.370;2023-04-23T08:02:57;1.20;;;0.50;;
4601;SDS011;2313;48.552;9.370;2023-04-23T08:05:23;1.77;;;0.80;;
4601;SDS011;2313;48.552;9.370;2023-04-23T08:07:48;0.90;;;0.60;;
4601;SDS011;2313;48.552;9.370;2023-04-23T08:10:14;1.20;;;0.70;;
4601;SDS011;2313;48.552;9.370;2023-04-23T08:12:40;0.80;;;0.63;;
4601;SDS011;2313;48.552;9.370;2023-04-23T08:15:06;1.27;;;0.50;;
4601;SDS011;2313;48.552;9.370;2023-04-23T08:17:32;1.43;;;0.60;;
4601;SDS011;2313;48.552;9.370;2023-04-23T08:19:57;1.37;;;1.00;;
4601;SDS011;2313;48.552;9.370;2023-04-23T08:22:23;1.07;;;0.60;;
4601;SDS011;2313;48.552;9.370;2023-04-23T08:24:48;1.20;;;0.57;;
4601;SDS011;2313;48.552;9.370;2023-04-23T08:27:14;0.80;;;0.60;;
4601;SDS011;2313;48.552;9.370;2023-04-23T08:29:40;0.90;;;0.60;;
4601;SDS011;2313;48.552;9.370;2023-04-23T08:32:05;0.90;;;0.60;;
4601;SDS011;2313;48.552;9.370;2023-04-23T08:34:31;0.80;;;0.50;;
4601;SDS011;2313;48.552;9.370;2023-04-23T08:36:56;1.53;;;0.77;;
4601;SDS011;2313;48.552;9.370;2023-04-23T08:39:22;2.13;;;0.60;;
4601;SDS011;2313;48.552;9.370;2023-04-23T08:41:48;1.87;;;0.63;;
4601;SDS011;2313;48.552;9.370;2023-04-23T08:44:23;1.13;;;0.60;;
4601;SDS011;2313;48.552;9.370;2023-04-23T08:46:50;0.93;;;0.73;;
4601;SDS011;2313;48.552;9.370;2023-04-23T08:49:17;1.23;;;0.63;;
4601;SDS011;2313;48.552;9.370;2023-04-23T08:54:25;1.77;;;0.60;;
4601;SDS011;2313;48.552;9.370;2023-04-23T08:56:55;0.80;;;0.50;;
4601;SDS011;2313;48.552;9.370;2023-04-23T08:59:25;3.67;;;0.93;;
4601;SDS011;2313;48.552;9.370;2023-04-23T09:01:53;1.97;;;0.70;;
4601;SDS011;2313;48.552;9.370;2023-04-23T09:04:20;1.37;;;0.90;;
4601;SDS011;2313;48.552;9.370;2023-04-23T09:06:47;1.47;;;0.70;;
4601;SDS011;2313;48.552;9.370;2023-04-23T09:09:16;1.03;;;0.70;;
4601;SDS011;2313;48.552;9.370;2023-04-23T09:11:44;1.43;;;0.70;;
4601;SDS011;2313;48.552;9.370;2023-04-23T09:14:09;1.30;;;0.60;;
4601;SDS011;2313;48.552;9.370;2023-04-23T09:16:36;1.93;;;0.70;;
4601;SDS011;2313;48.552;9.370;2023-04-23T09:19:04;1.37;;;0.90;;
4601;SDS011;2313;48.552;9.370;2023-04-23T09:21:33;1.20;;;0.60;;
4601;SDS011;2313;48.552;9.370;2023-04-23T09:24:03;2.30;;;0.70;;
4601;SDS011;2313;48.552;9.370;2023-04-23T09:26:29;1.83;;;0.87;;
4601;SDS011;2313;48.552;9.370;2023-04-23T09:28:54;1.07;;;0.70;;
4601;SDS011;2313;48.552;9.370;2023-04-23T09:31:20;0.80;;;0.60;;
4601;SDS011;2313;48.552;9.370;2023-04-23T09:33:51;3.37;;;0.80;;
4601;SDS011;2313;48.552;9.370;2023-04-23T09:36:21;0.90;;;0.80;;
4601;SDS011;2313;48.552;9.370;2023-04-23T09:38:48;1.10;;;0.80;;
4601;SDS011;2313;48.552;9.370;2023-04-23T09:41:24;1.63;;;0.70;;
4601;SDS011;2313;48.552;9.370;2023-04-23T09:43:55;1.03;;;0.80;;
4601;SDS011;2313;48.552;9.370;2023-04-23T09:46:31;1.60;;;0.90;;
4601;SDS011;2313;48.552;9.370;2023-04-23T09:48:57;1.00;;;0.60;;
4601;SDS011;2313;48.552;9.370;2023-04-23T09:51:25;1.33;;;0.80;;
4601;SDS011;2313;48.552;9.370;2023-04-23T09:53:52;1.30;;;0.90;;
4601;SDS011;2313;48.552;9.370;2023-04-23T09:56:18;1.43;;;0.77;;
4601;SDS011;2313;48.552;9.370;2023-04-23T09:58:45;1.00;;;0.70;;
4601;SDS011;2313;48.552;9.370;2023-04-23T10:01:11;0.90;;;0.60;;
4601;SDS011;2313;48.552;9.370;2023-04-23T10:03:42;2.57;;;1.00;;
4601;SDS011;2313;48.552;9.370;2023-04-23T10:06:12;3.53;;;1.10;;
4601;SDS011;2313;48.552;9.370;2023-04-23T10:08:39;1.33;;;1.10;;
4601;SDS011;2313;48.552;9.370;2023-04-23T10:11:05;3.60;;;0.87;;
4601;SDS011;2313;48.552;9.370;2023-04-23T10:13:32;1.40;;;0.77;;
4601;SDS011;2313;48.552;9.370;2023-04-23T10:15:59;1.87;;;1.20;;
4601;SDS011;2313;48.552;9.370;2023-04-23T10:18:26;5.00;;;1.00;;
4601;SDS011;2313;48.552;9.370;2023-04-23T10:20:55;1.47;;;0.70;;
4601;SDS011;2313;48.552;9.370;2023-04-23T10:23:22;1.50;;;0.70;;
4601;SDS011;2313;48.552;9.370;2023-04-23T10:25:48;1.20;;;1.10;;
4601;SDS011;2313;48.552;9.370;2023-04-23T10:28:17;2.17;;;1.00;;
4601;SDS011;2313;48.552;9.370;2023-04-23T10:30:50;2.40;;;0.90;;
4601;SDS011;2313;48.552;9.370;2023-04-23T10:33:17;1.20;;;1.00;;
4601;SDS011;2313;48.552;9.370;2023-04-23T10:35:45;1.10;;;1.00;;
4601;SDS011;2313;48.552;9.370;2023-04-23T10:38:12;2.70;;;0.90;;
4601;SDS011;2313;48.552;9.370;2023-04-23T10:40:38;3.13;;;1.00;;
4601;SDS011;2313;48.552;9.370;2023-04-23T10:43:09;2.17;;;0.90;;
4601;SDS011;2313;48.552;9.370;2023-04-23T10:45:34;1.30;;;1.00;;
4601;SDS011;2313;48.552;9.370;2023-04-23T10:48:00;1.53;;;0.93;;
4601;SDS011;2313;48.552;9.370;2023-04-23T10:50:29;1.20;;;1.10;;
4601;SDS011;2313;48.552;9.370;2023-04-23T10:52:58;1.00;;;0.90;;
4601;SDS011;2313;48.552;9.370;2023-04-23T10:55:26;1.10;;;0.80;;
4601;SDS011;2313;48.552;9.370;2023-04-23T10:57:57;3.43;;;1.00;;
4601;SDS011;2313;48.552;9.370;2023-04-23T11:00:28;2.43;;;0.90;;
4601;SDS011;2313;48.552;9.370;2023-04-23T11:05:55;4.30;;;1.20;;
4601;SDS011;2313;48.552;9.370;2023-04-23T11:08:22;1.73;;;0.90;;
4601;SDS011;2313;48.552;9.370;2023-04-23T11:10:54;1.50;;;0.73;;
4601;SDS011;2313;48.552;9.370;2023-04-23T11:13:25;1.33;;;0.83;;
4601;SDS011;2313;48.552;9.370;2023-04-23T11:18:59;1.47;;;1.03;;
4601;SDS011;2313;48.552;9.370;2023-04-23T11:24:30;1.20;;;0.90;;
4601;SDS011;2313;48.552;9.370;2023-04-23T11:27:06;1.00;;;0.90;;
4601;SDS011;2313;48.552;9.370;2023-04-23T11:29:43;1.43;;;1.00;;
4601;SDS011;2313;48.552;9.370;2023-04-23T11:32:10;1.90;;;0.90;;
4601;SDS011;2313;48.552;9.370;2023-04-23T11:34:39;1.73;;;0.70;;
4601;SDS011;2313;48.552;9.370;2023-04-23T11:37:08;1.23;;;0.90;;
4601;SDS011;2313;48.552;9.370;2023-04-23T11:39:35;0.90;;;0.80;;
4601;SDS011;2313;48.552;9.370;2023-04-23T11:42:01;1.40;;;0.90;;
4601;SDS011;2313;48.552;9.370;2023-04-23T11:44:27;1.20;;;0.70;;
4601;SDS011;2313;48.552;9.370;2023-04-23T11:46:53;1.07;;;0.80;;
4601;SDS011;2313;48.552;9.370;2023-04-23T11:49:19;3.30;;;1.00;;
4601;SDS011;2313;48.552;9.370;2023-04-23T11:51:45;1.60;;;0.90;;
4601;SDS011;2313;48.552;9.370;2023-04-23T11:54:12;2.37;;;0.90;;
4601;SDS011;2313;48.552;9.370;2023-04-23T11:56:39;1.40;;;0.73;;
4601;SDS011;2313;48.552;9.370;2023-04-23T11:59:05;1.30;;;0.70;;
4601;SDS011;2313;48.552;9.370;2023-04-23T12:01:44;1.20;;;0.80;;
4601;SDS011;2313;48.552;9.370;2023-04-23T12:04:15;1.70;;;0.80;;
4601;SDS011;2313;48.552;9.370;2023-04-23T12:06:45;4.90;;;0.80;;
4601;SDS011;2313;48.552;9.370;2023-04-23T12:09:12;1.93;;;0.90;;
4601;SDS011;2313;48.552;9.370;2023-04-23T12:11:40;4.70;;;0.80;;
4601;SDS011;2313;48.552;9.370;2023-04-23T12:14:07;3.57;;;0.97;;
4601;SDS011;2313;48.552;9.370;2023-04-23T12:16:41;0.90;;;0.60;;
4601;SDS011;2313;48.552;9.370;2023-04-23T12:21:54;4.00;;;1.07;;
4601;SDS011;2313;48.552;9.370;2023-04-23T12:24:22;1.77;;;0.67;;
4601;SDS011;2313;48.552;9.370;2023-04-23T12:26:56;2.17;;;0.80;;
4601;SDS011;2313;48.552;9.370;2023-04-23T12:29:24;1.03;;;0.93;;
4601;SDS011;2313;48.552;9.370;2023-04-23T12:31:51;0.90;;;0.70;;
4601;SDS011;2313;48.552;9.370;2023-04-23T12:34:20;1.27;;;0.63;;
4601;SDS011;2313;48.552;9.370;2023-04-23T12:36:47;1.10;;;0.60;;
4601;SDS011;2313;48.552;9.370;2023-04-23T12:39:24;1.60;;;0.90;;
4601;SDS011;2313;48.552;9.370;2023-04-23T12:41:54;1.63;;;0.70;;
4601;SDS011;2313;48.552;9.370;2023-04-23T12:44:21;1.40;;;0.63;;
4601;SDS011;2313;48.552;9.370;2023-04-23T12:46:48;1.67;;;0.80;;
4601;SDS011;2313;48.552;9.370;2023-04-23T12:49:25;0.80;;;0.50;;
4601;SDS011;2313;48.552;9.370;2023-04-23T12:51:51;3.63;;;1.53;;
4601;SDS011;2313;48.552;9.370;2023-04-23T12:54:21;1.30;;;0.87;;
4601;SDS011;2313;48.552;9.370;2023-04-23T12:56:48;1.07;;;0.90;;
4601;SDS011;2313;48.552;9.370;2023-04-23T12:59:14;0.97;;;0.80;;
4601;SDS011;2313;48.552;9.370;2023-04-23T13:01:39;3.83;;;1.30;;
4601;SDS011;2313;48.552;9.370;2023-04-23T13:04:05;2.13;;;0.70;;
4601;SDS011;2313;48.552;9.370;2023-04-23T13:06:31;1.03;;;0.60;;
4601;SDS011;2313;48.552;9.370;2023-04-23T13:08:57;2.73;;;0.80;;
4601;SDS011;2313;48.552;9.370;2023-04-23T13:11:26;0.90;;;0.70;;
4601;SDS011;2313;48.552;9.370;2023-04-23T13:13:51;1.27;;;0.70;;
4601;SDS011;2313;48.552;9.370;2023-04-23T13:16:17;2.63;;;0.90;;
4601;SDS011;2313;48.552;9.370;2023-04-23T13:18:43;1.53;;;0.83;;
4601;SDS011;2313;48.552;9.370;2023-04-23T13:21:08;3.00;;;0.70;;
4601;SDS011;2313;48.552;9.370;2023-04-23T13:23:35;1.30;;;0.90;;
4601;SDS011;2313;48.552;9.370;2023-04-23T13:26:02;1.33;;;0.80;;
4601;SDS011;2313;48.552;9.370;2023-04-23T13:28:30;2.93;;;0.90;;
4601;SDS011;2313;48.552;9.370;2023-04-23T13:30:56;2.80;;;0.67;;
4601;SDS011;2313;48.552;9.370;2023-04-23T13:33:21;2.33;;;0.90;;
4601;SDS011;2313;48.552;9.370;2023-04-23T13:35:47;4.53;;;1.50;;
4601;SDS011;2313;48.552;9.370;2023-04-23T13:38:13;1.50;;;0.83;;
4601;SDS011;2313;48.552;9.370;2023-04-23T13:40:38;1.13;;;0.70;;
4601;SDS011;2313;48.552;9.370;2023-04-23T13:43:04;1.50;;;0.80;;
4601;SDS011;2313;48.552;9.370;2023-04-23T13:45:30;2.10;;;0.83;;
4601;SDS011;2313;48.552;9.370;2023-04-23T13:47:56;2.80;;;1.30;;
4601;SDS011;2313;48.552;9.370;2023-04-23T13:50:21;2.50;;;0.80;;
4601;SDS011;2313;48.552;9.370;2023-04-23T13:52:47;1.83;;;0.70;;
4601;SDS011;2313;48.552;9.370;2023-04-23T13:55:13;1.63;;;0.90;;
4601;SDS011;2313;48.552;9.370;2023-04-23T13:57:38;4.30;;;1.00;;
4601;SDS011;2313;48.552;9.370;2023-04-23T14:00:04;2.40;;;1.03;;
4601;SDS011;2313;48.552;9.370;2023-04-23T14:02:30;2.03;;;0.60;;
4601;SDS011;2313;48.552;9.370;2023-04-23T14:04:56;5.53;;;0.90;;
4601;SDS011;2313;48.552;9.370;2023-04-23T14:07:22;1.47;;;0.87;;
4601;SDS011;2313;48.552;9.370;2023-04-23T14:09:48;2.43;;;1.00;;
4601;SDS011;2313;48.552;9.370;2023-04-23T14:12:16;3.30;;;1.00;;
4601;SDS011;2313;48.552;9.370;2023-04-23T14:14:43;1.03;;;0.90;;
4601;SDS011;2313;48.552;9.370;2023-04-23T14:17:08;1.43;;;0.87;;
4601;SDS011;2313;48.552;9.370;2023-04-23T14:19:34;1.27;;;0.90;;
4601;SDS011;2313;48.552;9.370;2023-04-23T14:22:02;1.00;;;0.87;;
4601;SDS011;2313;48.552;9.370;2023-04-23T14:24:32;2.07;;;0.73;;
4601;SDS011;2313;48.552;9.370;2023-04-23T14:26:58;1.27;;;0.80;;
4601;SDS011;2313;48.552;9.370;2023-04-23T14:31:58;3.70;;;1.10;;
4601;SDS011;2313;48.552;9.370;2023-04-23T14:34:24;2.70;;;0.90;;
4601;SDS011;2313;48.552;9.370;2023-04-23T14:36:50;1.50;;;1.00;;
4601;SDS011;2313;48.552;9.370;2023-04-23T14:39:16;1.03;;;0.80;;
4601;SDS011;2313;48.552;9.370;2023-04-23T14:41:43;1.20;;;0.80;;
4601;SDS011;2313;48.552;9.370;2023-04-23T14:44:09;1.27;;;1.00;;
4601;SDS011;2313;48.552;9.370;2023-04-23T14:46:36;1.50;;;0.80;;
4601;SDS011;2313;48.552;9.370;2023-04-23T14:49:01;1.40;;;1.00;;
4601;SDS011;2313;48.552;9.370;2023-04-23T14:51:28;1.60;;;0.67;;
4601;SDS011;2313;48.552;9.370;2023-04-23T14:53:53;3.03;;;0.90;;
4601;SDS011;2313;48.552;9.370;2023-04-23T14:56:19;1.60;;;0.80;;
4601;SDS011;2313;48.552;9.370;2023-04-23T14:58:44;3.17;;;1.27;;
4601;SDS011;2313;48.552;9.370;2023-04-23T15:01:10;2.20;;;1.00;;
4601;SDS011;2313;48.552;9.370;2023-04-23T15:03:36;3.03;;;1.20;;
4601;SDS011;2313;48.552;9.370;2023-04-23T15:06:05;1.43;;;1.10;;
4601;SDS011;2313;48.552;9.370;2023-04-23T15:08:31;2.47;;;0.93;;
4601;SDS011;2313;48.552;9.370;2023-04-23T15:10:56;4.00;;;0.90;;
4601;SDS011;2313;48.552;9.370;2023-04-23T15:13:43;1.43;;;1.07;;
4601;SDS011;2313;48.552;9.370;2023-04-23T15:16:35;2.13;;;1.00;;
4601;SDS011;2313;48.552;9.370;2023-04-23T15:19:01;2.80;;;1.40;;
4601;SDS011;2313;48.552;9.370;2023-04-23T15:21:30;1.40;;;1.07;;
4601;SDS011;2313;48.552;9.370;2023-04-23T15:23:56;1.57;;;1.07;;
4601;SDS011;2313;48.552;9.370;2023-04-23T15:26:21;2.80;;;1.40;;
4601;SDS011;2313;48.552;9.370;2023-04-23T15:28:48;2.80;;;1.27;;